This is the latest recevied weather packets stored in our database for station/object FACT. If no packets are shown the sender has not sent any weather packets the latest 10 day(s).
| Time | Temp. | Humidity | Pressure | Rain* | Wind** | Luminosity | Snow |
|---|---|---|---|---|---|---|---|
| 1777295600 | 16.67° C | 42% | 1023 hPa | - | - | - | - |
| 1777294406 | 15.56° C | 48% | 1023 hPa | - | - | - | - |
| 1777293204 | 15.56° C | 48% | 1023 hPa | - | - | - | - |
| 1777292605 | 15.56° C | 48% | 1023 hPa | - | - | - | - |
| 1777292002 | 15.56° C | 48% | 1023 hPa | - | - | - | - |
| 1777290804 | 16.67° C | 42% | 1024 hPa | - | - | - | - |
| 1777289607 | 16.67° C | 42% | 1024 hPa | - | - | - | - |
| 1777289006 | 16.67° C | 42% | 1024 hPa | - | - | - | - |
| 1777288403 | 16.67° C | 42% | 1024 hPa | - | - | - | - |
| 1777287803 | 16.67° C | 42% | 1024 hPa | - | - | - | - |
| 1777286605 | 16.67° C | 42% | 1024 hPa | - | - | - | - |
| 1777286003 | 16.67° C | 42% | 1024 hPa | - | - | - | - |
| 1777285405 | 16.67° C | 42% | 1024 hPa | - | - | - | - |
| 1777284802 | 16.67° C | 42% | 1024 hPa | - | - | - | - |
| 1777283606 | 16.67° C | 45% | 1024 hPa | - | - | - | - |
| 1777281803 | 15° C | 62% | 1024 hPa | - | - | - | - |
| 1777281200 | 15° C | 62% | 1024 hPa | - | - | - | - |
| 1777280604 | 15° C | 67% | 1025 hPa | - | - | - | - |
| 1777280002 | 15° C | 67% | 1025 hPa | - | - | - | - |
| 1777278803 | 15° C | 67% | 1025 hPa | - | - | - | - |
| 1777278203 | 12.78° C | 71% | 1025 hPa | - | - | - | - |
| 1777277600 | 12.78° C | 71% | 1025 hPa | - | - | - | - |
| 1777277005 | 12.78° C | 76% | 1024 hPa | - | - | - | - |
| 1777275199 | 12.78° C | 76% | 1024 hPa | - | - | - | - |
| 1777274601 | 10.56° C | 87% | 1024 hPa | - | - | - | - |
* Rain since midnight (hover to see other rain measurements)
** Current wind speed in m/s (hover to see current wind gust speed)